Moose, WY (83012)

3:38 AM MDT on April 28, 2017 (GMT -0600)
MJLKW4 | | Change Station

Elev 6773 ft 43.86 °N, 110.59 °W | Updated 1 hour ago

Overcast
Overcast
28.0 °F
Feels Like 28.0 °F
N
-
Wind Variable Wind from North

Today
High -- | Low -- °F
--% Chance of Precip.
Yesterday
High -- | Low -- °F
Precip. -- in
Pressure 29.76 in
Visibility 2.0 miles
Clouds Scattered Clouds 400 ft
Mostly Cloudy 1100 ft
Overcast 1700 ft
Dew Point Not available.
Humidity Not available.
Rainfall 0.10 in
Snow Depth Not available.
6:19 AM 8:22 PM
Waxing Crescent, 5% visible
METAR KJAC 280935Z AUTO 19005KT 2SM SCT004 BKN011 OVC017 M02/M02 A2976 RMK AO1 VIS 1 3/4V3
Pressure 29.76 in
Visibility 2.0 miles
Clouds Scattered Clouds 400 ft
Mostly Cloudy 1100 ft
Overcast 1700 ft
Dew Point Not available.
Humidity Not available.
Rainfall 0.10 in
Snow Depth Not available.
6:19 AM 8:22 PM
Waxing Crescent, 5% visible
METAR KJAC 280935Z AUTO 19005KT 2SM SCT004 BKN011 OVC017 M02/M02 A2976 RMK AO1 VIS 1 3/4V3

Get Severe Weather Alerts

Thanks for signing up!

Be on the lookout for a verification email in your inbox.

You'll start receiving the daily forecast at 8 AM.

×

10-Day Weather Forecast

Almanac

Astronomy

Apr. 28, 2017 Rise Set
Actual Time
Civil Twilight
Nautical Twilight
Astronomical Twilight
Moon
Length of Visible Light
Length of Day
Tomorrow will be .
, % of the Moon is Illuminated

Today's Extremes

State Highs State Lows

Community

WunderPhotos

WunderBlog® & News

Nearby

Air Quality

  Air Quality AQ Index Pollutant
Not available.

Snow Depth

Station Depth Elevation

Earthquake Activity

City Distance Mag. Time & Date
Minimum magnitude displayed is 2.5.

Coastal Water Temperatures

Place Temperature

Stations

Nearby Weather Stations

Station Location Temp. Windchill Dew Point Humidity Wind Precip. Elev Updated Type
                   

Watches & Warnings

There are currently no watches in effect.